Big Bear Station Historical Data
Daily Summary for April 26, 2017 Units:  English    Metric   Both
« Previous Day
Next Day »
Daily Weekly Monthly Yearly Custom
  High: Low: Average:
Temperature: 65.1 °F 37.0 °F 50.6 °F
Dew Point: 44.1 °F 29.0 °F 37 °F
Humidity: 81 % 44 % 61 %
Wind Speed: 9.9 mph 0.0 mph 3.8 mph
Wind Gust: -999.0 mph - -
Wind:- - West
Pressure: 23.45 in 23.40 in -
Precipitation: 0.00 in    
Historical Graphs
 
 
Tabular Data for April 26, 2017
Time Temperature Dew Point Pressure Wind Wind Speed Wind Gust Humidity Rainfall Rate (Hourly)
00:05 38.8 °F 31.6 °F 23.44 in South 2.2 mph -999.0 mph 75 % 0 in
00:20 38.7 °F 31.1 °F 23.45 in SSE 1.7 mph -999.0 mph 74 % 0 in
00:35 38.5 °F 29.9 °F 23.45 in Calm   -999.0 mph 71 % 0 in
00:50 38.7 °F 30.5 °F 23.45 in South 1.1 mph -999.0 mph 72 % 0 in
01:06 38.1 °F 29.9 °F 23.45 in Calm   -999.0 mph 72 % 0 in
01:21 37.9 °F 29.0 °F 23.45 in Calm   -999.0 mph 70 % 0 in
01:36 37.8 °F 29.2 °F 23.44 in Calm   -999.0 mph 71 % 0 in
01:51 37.9 °F 29.0 °F 23.44 in SSE 2.2 mph -999.0 mph 70 % 0 in
02:07 37.9 °F 30.4 °F 23.43 in South 1.7 mph -999.0 mph 74 % 0 in
02:22 37.9 °F 30.7 °F 23.42 in Calm   -999.0 mph 75 % 0 in
02:37 37.9 °F 31.0 °F 23.43 in South 1.7 mph -999.0 mph 76 % 0 in
02:52 38.1 °F 31.5 °F 23.42 in South 1.7 mph -999.0 mph 77 % 0 in
03:08 37.9 °F 31.3 °F 23.43 in SSE 2.2 mph -999.0 mph 77 % 0 in
03:23 37.8 °F 30.6 °F 23.43 in Calm   -999.0 mph 75 % 0 in
03:38 37.2 °F 31.0 °F 23.43 in South 2.2 mph -999.0 mph 78 % 0 in
03:53 37.2 °F 30.7 °F 23.43 in South 2.2 mph -999.0 mph 77 % 0 in
04:08 37.0 °F 30.5 °F 23.43 in SSE 1.7 mph -999.0 mph 77 % 0 in
04:24 37.4 °F 30.8 °F 23.43 in South 1.1 mph -999.0 mph 77 % 0 in
04:39 37.6 °F 31.4 °F 23.43 in Calm   -999.0 mph 78 % 0 in
04:54 37.8 °F 31.6 °F 23.42 in Calm   -999.0 mph 78 % 0 in
05:09 37.6 °F 31.7 °F 23.42 in South 1.7 mph -999.0 mph 79 % 0 in
05:24 38.1 °F 32.2 °F 23.42 in SSW 1.7 mph -999.0 mph 79 % 0 in
05:40 37.8 °F 32.2 °F 23.42 in South 1.7 mph -999.0 mph 80 % 0 in
05:56 38.1 °F 32.5 °F 23.42 in Calm   -999.0 mph 80 % 0 in
06:11 38.3 °F 32.4 °F 23.43 in SSE 2.7 mph -999.0 mph 79 % 0 in
06:26 38.3 °F 32.4 °F 23.43 in Calm   -999.0 mph 79 % 0 in
06:41 39.4 °F 33.1 °F 23.43 in SSW 2.7 mph -999.0 mph 78 % 0 in
06:56 40.6 °F 34.9 °F 23.42 in South 2.2 mph -999.0 mph 80 % 0 in
07:12 41.5 °F 36.1 °F 23.43 in SE 2.2 mph -999.0 mph 81 % 0 in
07:27 43.2 °F 35.8 °F 23.43 in South 1.7 mph -999.0 mph 75 % 0 in
07:42 45.9 °F 36.7 °F 23.42 in Calm   -999.0 mph 70 % 0 in
07:57 48.0 °F 34.4 °F 23.43 in Calm   -999.0 mph 59 % 0 in
08:12 51.3 °F 33.8 °F 23.43 in WNW 2.2 mph -999.0 mph 51 % 0 in
08:28 53.2 °F 33.5 °F 23.43 in NNW 2.2 mph -999.0 mph 47 % 0 in
08:43 54.7 °F 34.3 °F 23.44 in NNW 2.2 mph -999.0 mph 46 % 0 in
08:59 55.6 °F 35.7 °F 23.43 in NW 4.2 mph -999.0 mph 47 % 0 in
09:15 57.0 °F 38.0 °F 23.44 in NNW 1.1 mph -999.0 mph 49 % 0 in
09:30 57.7 °F 37.1 °F 23.44 in NNE 1.7 mph -999.0 mph 46 % 0 in
09:45 58.6 °F 37.9 °F 23.45 in NW 4.2 mph -999.0 mph 46 % 0 in
10:00 59.4 °F 39.7 °F 23.45 in South 2.2 mph -999.0 mph 48 % 0 in
10:16 58.8 °F 39.7 °F 23.45 in WNW 6.8 mph -999.0 mph 49 % 0 in
10:31 57.6 °F 39.6 °F 23.44 in NNW 7.3 mph -999.0 mph 51 % 0 in
10:47 58.8 °F 39.7 °F 23.44 in NW 4.7 mph -999.0 mph 49 % 0 in
11:02 58.8 °F 40.2 °F 23.45 in NW 7.8 mph -999.0 mph 50 % 0 in
11:17 59.2 °F 41.1 °F 23.45 in NW 5.8 mph -999.0 mph 51 % 0 in
11:32 61.0 °F 40.1 °F 23.45 in NW 4.7 mph -999.0 mph 46 % 0 in
11:48 60.6 °F 40.8 °F 23.45 in WNW 8.3 mph -999.0 mph 48 % 0 in
12:03 60.4 °F 41.2 °F 23.45 in North 6.8 mph -999.0 mph 49 % 0 in
12:18 61.5 °F 41.1 °F 23.45 in NW 8.9 mph -999.0 mph 47 % 0 in
12:34 62.1 °F 41.6 °F 23.44 in NNW 9.9 mph -999.0 mph 47 % 0 in
12:50 62.6 °F 41.0 °F 23.44 in NW 8.9 mph -999.0 mph 45 % 0 in
13:05 60.8 °F 39.9 °F 23.44 in NNW 4.7 mph -999.0 mph 46 % 0 in
13:20 61.2 °F 41.4 °F 23.44 in WNW 5.3 mph -999.0 mph 48 % 0 in
13:35 60.6 °F 41.9 °F 23.44 in NW 6.3 mph -999.0 mph 50 % 0 in
13:51 61.9 °F 42.5 °F 23.44 in NW 6.3 mph -999.0 mph 49 % 0 in
14:06 61.0 °F 42.2 °F 23.43 in North 6.3 mph -999.0 mph 50 % 0 in
14:21 61.0 °F 41.7 °F 23.43 in NW 7.3 mph -999.0 mph 49 % 0 in
14:37 60.6 °F 41.9 °F 23.43 in NW 5.8 mph -999.0 mph 50 % 0 in
14:53 60.3 °F 42.1 °F 23.44 in NNW 5.8 mph -999.0 mph 51 % 0 in
15:08 60.8 °F 42.6 °F 23.44 in NW 3.7 mph -999.0 mph 51 % 0 in
15:23 61.9 °F 42.5 °F 23.44 in WNW 2.2 mph -999.0 mph 49 % 0 in
15:39 62.1 °F 42.2 °F 23.43 in NNW 2.7 mph -999.0 mph 48 % 0 in
15:54 64.6 °F 43.9 °F 23.42 in NNW 6.3 mph -999.0 mph 47 % 0 in
16:09 65.1 °F 42.6 °F 23.42 in North 3.7 mph -999.0 mph 44 % 0 in
16:24 62.8 °F 43.4 °F 23.42 in North 3.2 mph -999.0 mph 49 % 0 in
16:40 61.9 °F 44.1 °F 23.42 in NW 7.3 mph -999.0 mph 52 % 0 in
16:55 59.4 °F 42.3 °F 23.42 in WNW 7.3 mph -999.0 mph 53 % 0 in
17:10 58.5 °F 42.4 °F 23.42 in NNE 5.8 mph -999.0 mph 55 % 0 in
17:25 57.2 °F 42.1 °F 23.42 in NW 5.3 mph -999.0 mph 57 % 0 in
17:40 56.5 °F 42.3 °F 23.42 in NW 3.2 mph -999.0 mph 59 % 0 in
17:56 55.9 °F 41.3 °F 23.42 in NNW 2.7 mph -999.0 mph 58 % 0 in
18:12 55.4 °F 41.3 °F 23.41 in WNW 6.3 mph -999.0 mph 59 % 0 in
18:27 55.8 °F 41.7 °F 23.42 in NW 6.3 mph -999.0 mph 59 % 0 in
18:42 54.7 °F 41.1 °F 23.42 in NW 6.3 mph -999.0 mph 60 % 0 in
18:57 54.0 °F 40.9 °F 23.41 in NW 8.9 mph -999.0 mph 61 % 0 in
19:13 53.4 °F 39.9 °F 23.41 in NNW 4.2 mph -999.0 mph 60 % 0 in
19:28 53.1 °F 39.6 °F 23.40 in South 5.3 mph -999.0 mph 60 % 0 in
19:43 52.3 °F 38.8 °F 23.40 in NNE 6.3 mph -999.0 mph 60 % 0 in
19:58 52.3 °F 38.8 °F 23.40 in NNW 1.7 mph -999.0 mph 60 % 0 in
20:13 51.6 °F 39.0 °F 23.41 in WNW 2.2 mph -999.0 mph 62 % 0 in
20:29 50.9 °F 38.8 °F 23.40 in NW 5.3 mph -999.0 mph 63 % 0 in
20:44 50.7 °F 38.6 °F 23.40 in NNW 4.2 mph -999.0 mph 63 % 0 in
20:59 50.4 °F 38.3 °F 23.42 in SSE 2.7 mph -999.0 mph 63 % 0 in
21:14 50.2 °F 37.3 °F 23.41 in ESE 3.7 mph -999.0 mph 61 % 0 in
21:30 50.4 °F 35.3 °F 23.41 in NNW 7.8 mph -999.0 mph 56 % 0 in
21:45 50.5 °F 36.3 °F 23.41 in West 5.3 mph -999.0 mph 58 % 0 in
22:01 50.7 °F 36.5 °F 23.41 in NW 6.8 mph -999.0 mph 58 % 0 in
22:32 50.4 °F 37.5 °F 23.40 in NW 7.3 mph -999.0 mph 61 % 0 in
22:47 50.7 °F 36.9 °F 23.41 in North 6.3 mph -999.0 mph 59 % 0 in
23:02 50.5 °F 37.5 °F 23.41 in WNW 4.7 mph -999.0 mph 61 % 0 in
23:17 50.2 °F 36.8 °F 23.40 in North 1.7 mph -999.0 mph 60 % 0 in
23:33 49.8 °F 36.5 °F 23.40 in WNW 3.2 mph -999.0 mph 60 % 0 in
23:49 50.0 °F 34.5 °F 23.41 in North 4.7 mph -999.0 mph 55 % 0 in
Big Bear CA Weather
Compliments of Weather Underground - 1.5 mb